Data for 06/07/2010

Time Sea-Level Adjusted Pressure Absolute Pressure Temperature Relative Humidity Dew Point   
(mb) (inHg) (mb) (inHg) (C) (F) (%) (C) (F)
00:05 1018 30.06 847 25.01 12.5 54.4 82 9.4 49
00:10 1018 30.06 847 25.01 12.5 54.4 81 9.4 48.9
00:15 1018 30.06 847 25.01 12.5 54.6 82 9.6 49.3
00:20 1018 30.06 848 25.04 12.7 54.8 82 9.7 49.4
00:25 1018 30.06 848 25.04 12.8 55 82 9.9 49.8
00:30 1018 30.06 848 25.04 12.8 55 85 10.3 50.6
00:35 1018 30.06 848 25.04 12.6 54.6 87 10.5 50.9
00:40 1018 30.06 848 25.04 12.4 54.2 87 10.3 50.6
00:45 1018 30.06 848 25.04 12 53.7 89 10.3 50.6
00:50 1018 30.06 848 25.04 11.9 53.5 90 10.4 50.6
00:55 1018 30.06 848 25.04 11.9 53.4 91 10.4 50.7
01:00 1019 30.09 848 25.04 11.7 53.1 92 10.4 50.7
01:05 1018 30.06 848 25.04 11.6 52.9 91 10.3 50.5
01:10 1018 30.06 848 25.04 11.7 53 91 10.3 50.5
01:15 1018 30.06 848 25.04 11.6 52.9 92 10.3 50.5
01:20 1018 30.06 848 25.04 11.5 52.6 90 9.9 49.8
01:25 1018 30.06 847 25.01 11.5 52.7 90 9.9 49.8
01:30 1018 30.06 847 25.01 11.6 52.9 88 9.8 49.6
01:35 1018 30.06 847 25.01 11.7 53 88 9.8 49.7
01:40 1018 30.06 847 25.01 11.6 52.9 89 9.8 49.6
01:45 1018 30.06 847 25.01 11.6 52.9 87 9.6 49.3
01:50 1018 30.06 847 25.01 11.7 53.1 88 9.9 49.8
01:55 1018 30.06 847 25.01 11.8 53.2 87 9.7 49.4
02:00 1018 30.06 847 25.01 11.8 53.2 87 9.8 49.6
02:05 1018 30.06 847 25.01 11.8 53.3 88 10 49.9
02:10 1018 30.06 847 25.01 11.7 53.1 89 10 50
02:15 1018 30.06 847 25.01 11.6 52.9 89 9.9 49.8
02:20 1018 30.06 847 25.01 11.5 52.6 89 9.8 49.6
02:25 1018 30.06 847 25.01 11.5 52.7 90 10 49.9
02:30 1018 30.06 847 25.01 11.6 52.9 90 10.1 50.1
02:35 1018 30.06 847 25.01 11.7 53 91 10.2 50.3
02:40 1018 30.06 847 25.01 11.6 52.9 91 10.2 50.4
02:45 1018 30.06 847 25.01 11.6 52.8 91 10.2 50.3
02:50 1018 30.06 847 25.01 11.6 52.8 91 10.2 50.3
02:55 1018 30.06 847 25.01 11.5 52.6 92 10.2 50.4
03:00 1018 30.06 847 25.01 11.3 52.4 93 10.2 50.4
03:05 1018 30.06 847 25.01 11.4 52.5 93 10.3 50.6
03:10 1018 30.06 847 25.01 11.4 52.5 93 10.4 50.6
03:15 1018 30.06 847 25.01 11.4 52.5 94 10.4 50.7
03:20 1018 30.06 847 25.01 11.4 52.5 94 10.4 50.7
03:25 1018 30.06 847 25.01 11.4 52.4 93 10.3 50.6
03:30 1018 30.06 847 25.01 11.3 52.4 93 10.2 50.4
03:35 1018 30.06 847 25.01 11.3 52.4 92 10.1 50.3
03:40 1018 30.06 847 25.01 11.3 52.3 93 10.1 50.2
03:45 1018 30.06 847 25.01 11.3 52.3 92 10 50.1
03:50 1018 30.06 847 25.01 11.3 52.3 92 9.9 49.9
03:55 1018 30.06 847 25.01 11.3 52.3 91 9.8 49.6
04:00 1018 30.06 847 25.01 11.1 51.9 91 9.7 49.5
04:05 1018 30.06 847 25.01 11 51.7 91 9.5 49.1
04:10 1018 30.06 847 25.01 11 51.7 89 9.3 48.7
04:15 1018 30.06 847 25.01 11 51.8 90 9.3 48.8
04:20 1018 30.06 847 25.01 11 51.8 89 9.3 48.8
04:25 1018 30.06 847 25.01 11 51.9 89 9.4 48.9
04:30 1018 30.06 847 25.01 11 51.8 88 9 48.3
04:35 1018 30.06 847 25.01 11.1 51.9 88 9.2 48.6
04:40 1018 30.06 847 25.01 11.1 51.9 88 9.1 48.4
04:45 1018 30.06 847 25.01 10.9 51.6 87 8.8 47.8
04:50 1018 30.06 847 25.01 10.8 51.4 87 8.7 47.7
04:55 1018 30.06 847 25.01 10.7 51.2 86 8.5 47.4
05:00 1018 30.06 847 25.01 10.7 51.2 87 8.6 47.5
05:05 1018 30.06 847 25.01 10.6 51.1 87 8.5 47.4
05:10 1018 30.06 847 25.01 10.6 51 86 8.4 47.1
05:15 1018 30.06 847 25.01 10.6 51.1 87 8.5 47.2
05:20 1018 30.06 847 25.01 10.6 51.1 86 8.4 47.1
05:25 1018 30.06 847 25.01 10.7 51.2 86 8.4 47.1
05:30 1018 30.06 847 25.01 10.7 51.3 86 8.4 47.2
05:35 1018 30.06 847 25.01 10.7 51.3 86 8.4 47.2
05:40 1018 30.06 847 25.01 10.7 51.2 87 8.5 47.4
05:45 1018 30.06 847 25.01 10.6 51.1 87 8.6 47.5
05:50 1018 30.06 847 25.01 10.5 50.9 88 8.6 47.5
05:55 1018 30.06 847 25.01 10.4 50.8 89 8.7 47.7
06:00 1018 30.06 847 25.01 10.4 50.8 90 8.9 48
06:05 1018 30.06 847 25.01 10.4 50.7 91 8.9 48.1
06:10 1018 30.06 847 25.01 10.4 50.6 92 9 48.3
06:15 1018 30.06 847 25.01 10.4 50.7 91 9 48.3
06:20 1018 30.06 847 25.01 10.4 50.8 91 9.1 48.4
06:25 1018 30.06 848 25.04 10.5 50.8 92 9.1 48.5
06:30 1018 30.06 848 25.04 10.3 50.5 93 9.2 48.5
06:35 1018 30.06 848 25.04 10.2 50.3 93 9.1 48.4
06:40 1019 30.09 848 25.04 10.1 50.2 94 9.1 48.4
06:45 1019 30.09 848 25.04 10 50 94 9 48.2
06:50 1019 30.09 848 25.04 9.8 49.7 94 8.9 47.9
06:55 1019 30.09 848 25.04 9.7 49.4 94 8.8 47.8
07:00 1019 30.09 848 25.04 9.6 49.3 94 8.8 47.8
07:05 1019 30.09 848 25.04 9.6 49.3 95 8.8 47.9
07:10 1019 30.09 848 25.04 9.6 49.3 94 8.7 47.7
07:15 1019 30.09 848 25.04 9.5 49.1 95 8.7 47.6
07:20 1019 30.09 848 25.04 9.5 49.1 94 8.7 47.6
07:25 1019 30.09 848 25.04 9.5 49.1 94 8.5 47.4
07:30 1019 30.09 848 25.04 9.2 48.6 94 8.3 46.9
07:35 1019 30.09 848 25.04 9 48.1 94 8 46.5
07:40 1019 30.09 848 25.04 9 48.1 94 8 46.4
07:45 1019 30.09 848 25.04 9 48.1 94 8 46.5
07:50 1019 30.09 848 25.04 9.1 48.3 94 8.1 46.6
07:55 1019 30.09 848 25.04 9.1 48.3 92 7.9 46.1
08:00 1019 30.09 848 25.04 9 48.2 93 8 46.3
08:05 1019 30.09 848 25.04 9.2 48.5 93 8.2 46.7
08:10 1019 30.09 848 25.04 9.3 48.8 92 8 46.5
08:15 1019 30.09 848 25.04 9.5 49.1 92 8.3 46.9
08:20 1019 30.09 848 25.04 9.6 49.2 90 8 46.5
08:25 1019 30.09 848 25.04 9.6 49.2 90 8 46.4
08:30 1019 30.09 848 25.04 9.7 49.4 91 8.3 46.9
08:35 1019 30.09 848 25.04 9.7 49.4 90 8.2 46.7
08:40 1019 30.09 848 25.04 9.6 49.3 90 8.1 46.5
08:45 1019 30.09 848 25.04 9.6 49.2 92 8.3 47
08:50 1019 30.09 848 25.04 9.6 49.3 91 8.2 46.8
08:55 1019 30.09 848 25.04 9.6 49.3 93 8.5 47.2
09:00 1019 30.09 848 25.04 9.7 49.4 93 8.6 47.5
09:05 1019 30.09 848 25.04 9.7 49.5 92 8.5 47.3
09:10 1019 30.09 848 25.04 9.9 49.9 92 8.8 47.8
09:15 1019 30.09 848 25.04 10.2 50.3 89 8.5 47.2
09:20 1019 30.09 848 25.04 10.3 50.5 89 8.6 47.5
09:25 1019 30.09 848 25.04 10.7 51.3 90 9.2 48.5
09:30 1019 30.09 848 25.04 11.1 52 88 9.2 48.5
09:35 1019 30.09 848 25.04 11.4 52.4 88 9.4 49
09:40 1019 30.09 848 25.04 11.1 51.9 87 9.1 48.3
09:45 1019 30.09 848 25.04 10.8 51.5 89 9.1 48.3
09:50 1019 30.09 848 25.04 11 51.8 89 9.3 48.7
09:55 1019 30.09 848 25.04 11 51.9 89 9.2 48.6
10:00 1019 30.09 848 25.04 11.1 51.9 88 9.2 48.5
10:05 1019 30.09 848 25.04 11.3 52.3 87 9.2 48.6
10:10 1019 30.09 848 25.04 11.2 52.1 87 9.1 48.4
10:15 1019 30.09 848 25.04 11.3 52.3 85 8.9 48
10:20 1019 30.09 848 25.04 11.5 52.6 84 8.8 47.9
10:25 1019 30.09 848 25.04 11.5 52.7 82 8.5 47.3
10:30 1019 30.09 848 25.04 11.8 53.2 82 8.8 47.9
10:35 1019 30.09 848 25.04 11.8 53.2 80 8.5 47.3
10:40 1019 30.09 848 25.04 12 53.5 77 8.1 46.6
10:45 1019 30.09 848 25.04 12.1 53.7 78 8.4 47.1
10:50 1018 30.06 848 25.04 12.5 54.4 75 8.1 46.6
10:55 1018 30.06 848 25.04 13.1 55.6 71 8 46.4
11:00 1018 30.06 848 25.04 13.4 56.2 68 7.7 45.9
11:05 1018 30.06 848 25.04 13.7 56.6 64 7 44.6
11:10 1018 30.06 848 25.04 13.8 56.8 68 7.9 46.3
11:15 1018 30.06 848 25.04 14.3 57.8 61 7 44.5
11:20 1018 30.06 848 25.04 14.9 58.8 58 6.7 44
11:25 1019 30.09 848 25.04 15.2 59.4 58 7 44.7
11:30 1019 30.09 848 25.04 14.9 58.8 60 7.3 45.2
11:35 1018 30.06 848 25.04 15.3 59.5 57 6.9 44.4
11:40 1018 30.06 848 25.04 15.3 59.5 60 7.6 45.6
11:45 1018 30.06 848 25.04 15 59 58 6.8 44.2
11:50 1018 30.06 847 25.01 15.1 59.1 58 6.9 44.4
11:55 1018 30.06 847 25.01 14.7 58.4 58 6.6 43.8
12:00 1018 30.06 847 25.01 14.5 58.2 57 6.1 43
12:05 1018 30.06 847 25.01 14.3 57.8 61 6.9 44.5
12:10 1018 30.06 847 25.01 14.7 58.4 60 7.1 44.8
12:15 1018 30.06 847 25.01 14.9 58.8 58 6.8 44.3
12:20 1018 30.06 847 25.01 15.1 59.2 57 6.7 44
12:25 1018 30.06 847 25.01 15.8 60.5 54 6.7 44.1
12:30 1018 30.06 847 25.01 16.2 61.1 54 6.9 44.4
12:35 1018 30.06 847 25.01 16.5 61.7 53 7.1 44.7
12:40 1018 30.06 847 25.01 15.8 60.4 54 6.6 43.8
12:45 1018 30.06 847 25.01 16.5 61.7 50 6.2 43.2
12:50 1018 30.06 847 25.01 16.4 61.6 53 6.9 44.4
12:55 1018 30.06 847 25.01 17.1 62.8 48 6.1 42.9
13:00 1018 30.06 847 25.01 17.8 64.1 44 5.6 42.1
13:05 1018 30.06 847 25.01 18.5 65.2 44 6.2 43.1
13:10 1018 30.06 847 25.01 18.9 66 44 6.6 43.9
13:15 1018 30.06 847 25.01 18.9 66.1 46 7.3 45.1
13:20 1017 30.03 847 25.01 18.2 64.7 48 7.1 44.8
13:25 1017 30.03 847 25.01 18.2 64.7 48 7.2 45
13:30 1017 30.03 846 24.98 17.7 63.9 49 7 44.6
13:35 1017 30.03 846 24.98 18 64.5 49 7.4 45.3
13:40 1017 30.03 846 24.98 18.6 65.5 47 7.3 45.2
13:45 1017 30.03 846 24.98 18.3 64.9 49 7.6 45.7
13:50 1017 30.03 846 24.98 17.8 64 48 6.9 44.4
13:55 1017 30.03 846 24.98 18.4 65 47 7.1 44.7
14:00 1017 30.03 846 24.98 18.3 64.9 48 7.1 44.7
14:05 1017 30.03 846 24.98 18 64.5 50 7.5 45.5
14:10 1017 30.03 846 24.98 17.2 62.9 50 6.7 44.1
14:15 1017 30.03 846 24.98 17.5 63.4 49 6.7 44
14:20 1017 30.03 846 24.98 18.6 65.4 46 6.9 44.5
14:25 1017 30.03 846 24.98 18 64.4 47 6.8 44.2
14:30 1017 30.03 846 24.98 18.6 65.5 45 6.7 44.1
14:35 1017 30.03 846 24.98 19.6 67.3 40 5.7 42.3
14:40 1017 30.03 846 24.98 19.7 67.5 42 6.5 43.7
14:45 1017 30.03 846 24.98 20 68.1 42 6.8 44.3
14:50 1017 30.03 846 24.98 20 68 43 7.2 45
14:55 1016 30 846 24.98 19.4 66.8 44 6.9 44.4
15:00 1016 30 846 24.98 20 68 42 7 44.5
15:05 1017 30.03 846 24.98 19.7 67.5 47 8.1 46.6
15:10 1017 30.03 846 24.98 16.9 62.5 53 7.4 45.3
15:15 1017 30.03 846 24.98 15 59 56 6.5 43.7
15:20 1017 30.03 846 24.98 14.9 58.9 56 6.3 43.4
15:25 1017 30.03 846 24.98 15.2 59.3 56 6.6 43.8
15:30 1017 30.03 846 24.98 14.7 58.5 54 5.7 42.3
15:35 1017 30.03 846 24.98 15.2 59.4 53 5.8 42.5
15:40 1017 30.03 846 24.98 15 58.9 56 6.3 43.4
15:45 1017 30.03 846 24.98 13.9 57 57 5.5 41.9
15:50 1017 30.03 846 24.98 14.1 57.5 56 5.5 41.9
15:55 1017 30.03 846 24.98 15.1 59.1 51 5 41
16:00 1017 30.03 846 24.98 16.5 61.6 47 5.2 41.4
16:05 1017 30.03 846 24.98 16.7 62.1 45 4.8 40.7
16:10 1017 30.03 846 24.98 18.1 64.5 42 5.2 41.4
16:15 1017 30.03 846 24.98 17.7 63.9 43 5 41
16:20 1017 30.03 846 24.98 17.8 64 41 4.6 40.3
16:25 1017 30.03 846 24.98 18.4 65 39 4.2 39.6
16:30 1017 30.03 846 24.98 18.4 65.1 40 4.7 40.5
16:35 1017 30.03 846 24.98 17.8 64.1 42 5 41.1
16:40 1017 30.03 846 24.98 17.7 63.9 42 4.9 40.8
16:45 1017 30.03 846 24.98 18.4 65.2 40 4.7 40.5
16:50 1017 30.03 846 24.98 19 66.2 40 5.1 41.2
16:55 1017 30.03 846 24.98 18.6 65.5 42 5.7 42.2
17:00 1017 30.03 846 24.98 18.4 65.2 41 5 41.1
17:05 1017 30.03 846 24.98 19.1 66.4 39 5.1 41.2
17:10 1017 30.03 846 24.98 19.5 67.1 39 5.2 41.4
17:15 1017 30.03 846 24.98 18.7 65.6 38 4.3 39.8
17:20 1017 30.03 846 24.98 18.7 65.7 40 5.1 41.2
17:25 1017 30.03 846 24.98 19 66.3 40 5.1 41.2
17:30 1017 30.03 846 24.98 18.6 65.5 39 4.5 40.1
17:35 1017 30.03 846 24.98 18.6 65.4 41 5.1 41.1
17:40 1017 30.03 846 24.98 18 64.3 45 5.8 42.5
17:45 1017 30.03 846 24.98 17.4 63.4 45 5.3 41.6
17:50 1016 30 846 24.98 17.1 62.7 53 7.5 45.5
17:55 1016 30 846 24.98 15.4 59.7 56 6.7 44.1
18:00 1017 30.03 846 24.98 14.2 57.5 63 7.4 45.2
18:05 1017 30.03 846 24.98 13.7 56.7 69 8.2 46.8
18:10 1018 30.06 847 25.01 13.3 56 73 8.6 47.6
18:15 1018 30.06 847 25.01 13.1 55.7 76 9 48.2
18:20 1018 30.06 847 25.01 13.2 55.8 77 9.3 48.7
18:25 1018 30.06 847 25.01 13.3 55.9 76 9.1 48.4
18:30 1018 30.06 847 25.01 13.4 56.1 74 8.8 47.9
18:35 1018 30.06 847 25.01 13.2 55.7 72 8.3 47
18:40 1018 30.06 847 25.01 13 55.4 69 7.4 45.3
18:45 1018 30.06 847 25.01 12.9 55.1 68 7.2 44.9
18:50 1018 30.06 848 25.04 12.6 54.6 70 7.3 45.1
18:55 1019 30.09 848 25.04 13 55.3 69 7.4 45.3
19:00 1019 30.09 848 25.04 13.2 55.7 69 7.7 45.8
19:05 1019 30.09 848 25.04 13.3 55.9 65 6.8 44.3
19:10 1019 30.09 848 25.04 13.2 55.8 65 6.9 44.4
19:15 1019 30.09 848 25.04 13.4 56.1 64 6.8 44.2
19:20 1019 30.09 848 25.04 13.4 56 62 6.2 43.2
19:25 1019 30.09 848 25.04 13.3 55.9 63 6.4 43.5
19:30 1019 30.09 848 25.04 13.5 56.2 63 6.5 43.8
19:35 1019 30.09 848 25.04 13.2 55.8 69 7.7 45.9
19:40 1019 30.09 848 25.04 12.4 54.4 70 7.2 44.9
19:45 1019 30.09 848 25.04 12.4 54.3 68 6.7 44
19:50 1019 30.09 848 25.04 12.5 54.4 73 7.8 46
19:55 1019 30.09 848 25.04 12 53.6 77 8.2 46.7
20:00 1019 30.09 848 25.04 11.9 53.4 76 7.9 46.2
20:05 1019 30.09 848 25.04 11.9 53.4 78 8.3 46.9
20:10 1019 30.09 849 25.07 11.9 53.5 77 8 46.5
20:15 1019 30.09 849 25.07 11.9 53.4 76 7.8 46.1
20:20 1019 30.09 849 25.07 11.7 53.1 75 7.5 45.5
20:25 1020 30.12 849 25.07 11.7 53.1 70 6.5 43.8
20:30 1019 30.09 849 25.07 11.8 53.3 71 6.7 44.1
20:35 1019 30.09 849 25.07 11.9 53.4 71 6.8 44.3
20:40 1019 30.09 848 25.04 11.9 53.4 71 6.8 44.3
20:45 1019 30.09 849 25.07 11.9 53.4 68 6.3 43.4
20:50 1020 30.12 849 25.07 11.9 53.4 70 6.7 44
20:55 1020 30.12 849 25.07 11.8 53.3 71 6.8 44.3
21:00 1020 30.12 849 25.07 11.7 53 73 7 44.6
21:05 1020 30.12 849 25.07 11.5 52.7 74 7 44.6
21:10 1020 30.12 849 25.07 11.2 52.2 77 7.5 45.4
21:15 1020 30.12 849 25.07 11 51.8 78 7.3 45.1
21:20 1020 30.12 849 25.07 10.9 51.5 72 6 42.7
21:25 1020 30.12 849 25.07 10.9 51.6 75 6.8 44.2
21:30 1020 30.12 849 25.07 10.7 51.3 74 6.2 43.2
21:35 1020 30.12 849 25.07 10.7 51.2 73 6.2 43.1
21:40 1020 30.12 849 25.07 10.6 51.2 72 5.8 42.5
21:45 1020 30.12 849 25.07 10.6 51.1 72 5.7 42.3
21:50 1020 30.12 849 25.07 10.5 51 70 5.4 41.6
21:55 1020 30.12 849 25.07 10.4 50.8 73 5.8 42.5
22:00 1020 30.12 849 25.07 10.5 51 70 5.2 41.4
22:05 1020 30.12 849 25.07 10.7 51.2 71 5.6 42.1
22:10 1020 30.12 849 25.07 10.8 51.4 70 5.6 42.1
22:15 1020 30.12 849 25.07 10.8 51.5 70 5.5 41.9
22:20 1020 30.12 849 25.07 10.7 51.3 69 5.4 41.7
22:25 1020 30.12 849 25.07 10.6 51.1 70 5.3 41.5
22:30 1020 30.12 850 25.1 10.5 50.9 69 5.2 41.3
22:35 1020 30.12 850 25.1 10.6 51 67 4.7 40.4
22:40 1020 30.12 850 25.1 10.6 51.1 66 4.6 40.3
22:45 1020 30.12 850 25.1 10.5 50.9 68 5 41
22:50 1020 30.12 850 25.1 10.3 50.5 68 4.6 40.2
22:55 1020 30.12 850 25.1 10.2 50.3 68 4.6 40.3
23:00 1020 30.12 850 25.1 10.1 50.1 68 4.6 40.2
23:05 1020 30.12 850 25.1 10 50 67 4.3 39.7
23:10 1020 30.12 850 25.1 9.9 49.9 65 3.7 38.7
23:15 1020 30.12 850 25.1 9.7 49.5 67 3.9 39
23:20 1020 30.12 850 25.1 9.6 49.2 64 3.1 37.6
23:25 1020 30.12 850 25.1 9.7 49.4 64 3.2 37.7
23:30 1020 30.12 850 25.1 9.7 49.4 62 2.8 37
23:35 1020 30.12 850 25.1 9.5 49.1 63 2.9 37.2
23:40 1020 30.12 850 25.1 9.2 48.6 64 2.8 37
23:45 1020 30.12 850 25.1 9.1 48.3 64 2.8 37
23:50 1020 30.12 850 25.1 8.8 47.9 67 3.1 37.7
23:55 1020 30.12 850 25.1 8.6 47.4 69 3.2 37.8
24:00 1020 30.12 850 25.1 8.6 47.5 69 3.3 37.9